Time;durP1;ratioP1;P1;durP2;ratioP2;P2;SDS_P1;SDS_P2;PMS_P1;PMS_P2;Temp;Humidity;BMP_temperature;BMP_pressure;BME280_temperature;BME280_humidity;BME280_pressure;Samples;Min_cycle;Max_cycle;Signal;HPM_P1;HPM_P2
2022/10/17 00:01:32;;;;;;;22.80;11.93;;;;;;;;;;5158111;27;20471;-73
2022/10/17 00:03:59;;;;;;;17.87;13.67;;;;;;;;;;5157658;27;20462;-73
2022/10/17 00:06:26;;;;;;;21.20;13.63;;;;;;;;;;5157494;27;20483;-72
2022/10/17 00:08:55;;;;;;;16.00;12.47;;;;;;;;;;5158149;27;20846;-72
2022/10/17 00:11:23;;;;;;;18.67;12.73;;;;;;;;;;5157926;27;20466;-72
2022/10/17 00:13:51;;;;;;;14.63;12.20;;;;;;;;;;5157248;27;20928;-72
2022/10/17 00:16:23;;;;;;;13.20;10.67;;;;;;;;;;5157975;27;20834;-73
2022/10/17 00:18:51;;;;;;;14.10;10.83;;;;;;;;;;5157836;27;20459;-73
2022/10/17 00:21:18;;;;;;;15.77;12.50;;;;;;;;;;5158032;27;20791;-72
2022/10/17 00:23:45;;;;;;;19.73;12.03;;;;;;;;;;5157163;27;20459;-73
2022/10/17 00:26:14;;;;;;;17.23;10.87;;;;;;;;;;5157792;27;21089;-73
2022/10/17 00:28:41;;;;;;;19.60;11.40;;;;;;;;;;5157722;27;20487;-73
2022/10/17 00:31:08;;;;;;;10.47;9.37;;;;;;;;;;5157824;27;20451;-73
2022/10/17 00:33:36;;;;;;;16.43;9.70;;;;;;;;;;5157035;27;20462;-73
2022/10/17 00:36:04;;;;;;;10.27;9.20;;;;;;;;;;5157600;27;20833;-72
2022/10/17 00:38:31;;;;;;;22.17;8.53;;;;;;;;;;5157572;27;20954;-73
2022/10/17 00:40:59;;;;;;;9.80;8.23;;;;;;;;;;5157548;27;20447;-72
2022/10/17 00:43:28;;;;;;;14.23;9.00;;;;;;;;;;5155460;27;20444;-73
2022/10/17 00:45:55;;;;;;;7.50;6.70;;;;;;;;;;5157297;27;20562;-73
2022/10/17 00:48:23;;;;;;;10.87;8.10;;;;;;;;;;5157336;27;20489;-73
2022/10/17 00:50:50;;;;;;;9.97;8.00;;;;;;;;;;5157437;27;20806;-73
2022/10/17 00:53:18;;;;;;;13.40;8.87;;;;;;;;;;5157572;27;20967;-73
2022/10/17 00:55:49;;;;;;;14.97;8.60;;;;;;;;;;5156676;27;20837;-73
2022/10/17 00:58:16;;;;;;;9.90;8.80;;;;;;;;;;5157157;27;20451;-73
2022/10/17 01:00:45;;;;;;;12.20;9.87;;;;;;;;;;5156099;27;20960;-73
2022/10/17 01:03:12;;;;;;;16.97;11.30;;;;;;;;;;5157110;27;20447;-73
2022/10/17 01:05:40;;;;;;;14.33;10.73;;;;;;;;;;5156293;27;20837;-73
2022/10/17 01:08:08;;;;;;;18.10;10.50;;;;;;;;;;5156943;27;20480;-73
2022/10/17 01:10:39;;;;;;;15.17;11.20;;;;;;;;;;5156847;27;20483;-73
2022/10/17 01:13:09;;;;;;;17.87;10.47;;;;;;;;;;5156967;27;20462;-73
2022/10/17 01:15:40;;;;;;;13.80;9.60;;;;;;;;;;5156187;27;20468;-73
2022/10/17 01:18:16;;;;;;;14.87;9.83;;;;;;;;;;5156912;27;20442;-73
2022/10/17 01:21:00;;;;;;;11.13;8.80;;;;;;;;;;5156836;27;20450;-73
2022/10/17 01:23:42;;;;;;;9.37;7.90;;;;;;;;;;5156065;27;20451;-74
2022/10/17 01:26:15;;;;;;;11.23;8.20;;;;;;;;;;5153646;27;20479;-73
2022/10/17 01:29:02;;;;;;;10.43;8.00;;;;;;;;;;5156586;27;20487;-73
2022/10/17 01:31:33;;;;;;;12.83;7.77;;;;;;;;;;5156486;27;20458;-73
2022/10/17 01:34:03;;;;;;;11.13;8.67;;;;;;;;;;5155940;27;20485;-73
2022/10/17 01:36:37;;;;;;;11.13;7.27;;;;;;;;;;5156240;27;20493;-73
2022/10/17 01:39:10;;;;;;;8.90;6.87;;;;;;;;;;5156563;27;20825;-73
2022/10/17 01:41:40;;;;;;;7.30;6.50;;;;;;;;;;5156343;27;20458;-73
2022/10/17 01:44:11;;;;;;;8.23;6.27;;;;;;;;;;5153310;27;20912;-73
2022/10/17 01:46:40;;;;;;;7.33;6.17;;;;;;;;;;5156078;27;20474;-73
2022/10/17 01:49:08;;;;;;;7.80;6.13;;;;;;;;;;5156098;27;20488;-73
2022/10/17 01:51:38;;;;;;;7.80;6.30;;;;;;;;;;5156092;27;20463;-73
2022/10/17 01:54:10;;;;;;;7.03;6.03;;;;;;;;;;5155606;27;20452;-73
2022/10/17 01:56:38;;;;;;;10.13;5.83;;;;;;;;;;5155858;27;20484;-73
2022/10/17 01:59:07;;;;;;;6.23;5.63;;;;;;;;;;5156146;27;20446;-73
2022/10/17 02:01:35;;;;;;;8.20;6.53;;;;;;;;;;5155994;27;20466;-73
2022/10/17 02:04:04;;;;;;;9.37;6.33;;;;;;;;;;5155445;27;20447;-73
2022/10/17 02:06:35;;;;;;;7.07;5.67;;;;;;;;;;5155812;27;20471;-72
2022/10/17 02:09:02;;;;;;;8.40;5.57;;;;;;;;;;5156057;27;20483;-73
2022/10/17 02:11:29;;;;;;;6.93;6.10;;;;;;;;;;5155478;27;20463;-73
2022/10/17 02:14:05;;;;;;;7.70;5.70;;;;;;;;;;5155182;27;20448;-73
2022/10/17 02:16:36;;;;;;;7.83;5.30;;;;;;;;;;5155504;27;20471;-73
2022/10/17 02:19:13;;;;;;;7.10;5.60;;;;;;;;;;5155712;27;20452;-73
2022/10/17 02:21:45;;;;;;;5.40;4.90;;;;;;;;;;5155429;27;20462;-73
2022/10/17 02:24:18;;;;;;;6.47;5.60;;;;;;;;;;5155056;27;20456;-73
2022/10/17 02:26:49;;;;;;;6.43;5.63;;;;;;;;;;5155226;27;20475;-73
2022/10/17 02:29:18;;;;;;;9.43;5.47;;;;;;;;;;5155332;27;20488;-72
2022/10/17 02:31:47;;;;;;;7.23;6.27;;;;;;;;;;5155383;27;20458;-73
2022/10/17 02:34:18;;;;;;;10.63;6.30;;;;;;;;;;5154591;27;20455;-73
2022/10/17 02:36:48;;;;;;;16.13;6.30;;;;;;;;;;5155193;27;20475;-73
2022/10/17 02:39:16;;;;;;;74.53;11.27;;;;;;;;;;5155263;27;20448;-73
2022/10/17 02:41:44;;;;;;;57.60;9.70;;;;;;;;;;5155089;27;20458;-73
2022/10/17 02:44:11;;;;;;;78.27;12.43;;;;;;;;;;5153365;27;20813;-73
2022/10/17 02:46:39;;;;;;;51.80;10.73;;;;;;;;;;5154942;27;20463;-73
2022/10/17 02:49:09;;;;;;;64.10;11.00;;;;;;;;;;5154896;27;20488;-73
2022/10/17 02:51:42;;;;;;;61.17;10.33;;;;;;;;;;5155025;27;20451;-72
2022/10/17 02:54:13;;;;;;;81.57;11.20;;;;;;;;;;5154456;27;20456;-72
2022/10/17 02:56:42;;;;;;;58.83;9.80;;;;;;;;;;5154907;27;20464;-72
2022/10/17 02:59:10;;;;;;;55.37;11.47;;;;;;;;;;5154906;27;20447;-73
2022/10/17 03:01:37;;;;;;;55.33;11.10;;;;;;;;;;5154931;27;20444;-72
2022/10/17 03:04:05;;;;;;;64.17;12.50;;;;;;;;;;5154260;27;20455;-72
2022/10/17 03:06:32;;;;;;;71.40;12.67;;;;;;;;;;5154575;27;20471;-72
2022/10/17 03:09:01;;;;;;;109.27;14.10;;;;;;;;;;5154653;27;20484;-72
2022/10/17 03:11:28;;;;;;;75.73;13.47;;;;;;;;;;5154381;27;20543;-73
2022/10/17 03:13:55;;;;;;;59.47;14.97;;;;;;;;;;5154103;27;20940;-73
2022/10/17 03:16:22;;;;;;;163.47;24.57;;;;;;;;;;5153667;27;20487;-73
2022/10/17 03:18:50;;;;;;;104.07;23.03;;;;;;;;;;5154502;27;20455;-72
2022/10/17 03:21:17;;;;;;;150.70;25.13;;;;;;;;;;5154384;27;20444;-73
2022/10/17 03:23:44;;;;;;;296.60;31.40;;;;;;;;;;5153656;27;20972;-73
2022/10/17 03:26:12;;;;;;;193.73;29.50;;;;;;;;;;5154264;27;20463;-73
2022/10/17 03:28:40;;;;;;;133.67;24.30;;;;;;;;;;5154336;27;20483;-73
2022/10/17 03:31:08;;;;;;;216.97;26.70;;;;;;;;;;5154026;27;20455;-72
2022/10/17 03:33:36;;;;;;;173.80;23.90;;;;;;;;;;5154011;27;20804;-73
2022/10/17 03:36:06;;;;;;;168.37;22.83;;;;;;;;;;5154116;27;20482;-73
2022/10/17 03:38:33;;;;;;;212.57;26.10;;;;;;;;;;5154234;27;20535;-73
2022/10/17 03:41:00;;;;;;;180.23;21.17;;;;;;;;;;5154199;27;20949;-73
2022/10/17 03:43:28;;;;;;;123.93;20.73;;;;;;;;;;5151965;27;20466;-73
2022/10/17 03:45:56;;;;;;;150.40;18.40;;;;;;;;;;5152763;27;20474;-73
2022/10/17 03:48:23;;;;;;;212.40;23.40;;;;;;;;;;5152289;27;20494;-73
2022/10/17 03:50:51;;;;;;;172.93;20.83;;;;;;;;;;5153966;27;20443;-73
2022/10/17 03:53:18;;;;;;;271.93;22.93;;;;;;;;;;5153781;27;20458;-73
2022/10/17 03:55:45;;;;;;;248.10;26.90;;;;;;;;;;5153100;27;20528;-73
2022/10/17 03:58:13;;;;;;;251.50;25.90;;;;;;;;;;5153351;27;20447;-73
2022/10/17 04:00:42;;;;;;;200.50;25.57;;;;;;;;;;5152578;27;20454;-73
2022/10/17 04:03:09;;;;;;;374.80;37.60;;;;;;;;;;5154397;27;20845;-72
2022/10/17 04:05:36;;;;;;;355.90;38.67;;;;;;;;;;5152568;27;20474;-72
2022/10/17 04:08:03;;;;;;;360.87;42.67;;;;;;;;;;5154167;27;20455;-73
2022/10/17 04:10:31;;;;;;;494.00;47.73;;;;;;;;;;5154006;27;20491;-73
2022/10/17 04:12:58;;;;;;;439.57;46.90;;;;;;;;;;5154081;27;20793;-73
2022/10/17 04:15:25;;;;;;;401.63;41.07;;;;;;;;;;5153495;27;20817;-73
2022/10/17 04:17:53;;;;;;;116.70;23.93;;;;;;;;;;5153718;27;20444;-73
2022/10/17 04:20:21;;;;;;;331.70;35.13;;;;;;;;;;5153932;27;20452;-73
2022/10/17 04:22:48;;;;;;;177.83;26.83;;;;;;;;;;5153460;27;20467;-73
2022/10/17 04:25:15;;;;;;;45.47;18.03;;;;;;;;;;5153308;27;20474;-73
2022/10/17 04:27:42;;;;;;;92.40;18.73;;;;;;;;;;5153716;27;20478;-73
2022/10/17 04:30:09;;;;;;;122.13;20.43;;;;;;;;;;5153768;27;20486;-73
2022/10/17 04:32:37;;;;;;;72.47;17.60;;;;;;;;;;5153787;27;20820;-73
2022/10/17 04:35:06;;;;;;;100.67;18.37;;;;;;;;;;5154181;27;20471;-73
2022/10/17 04:37:34;;;;;;;108.30;17.47;;;;;;;;;;5157474;27;20462;-73
2022/10/17 04:40:01;;;;;;;127.43;21.03;;;;;;;;;;5157513;27;20454;-73
2022/10/17 04:42:29;;;;;;;56.50;16.40;;;;;;;;;;5155100;27;20933;-73
2022/10/17 04:44:56;;;;;;;191.40;20.30;;;;;;;;;;5156881;27;20986;-73
2022/10/17 04:47:23;;;;;;;84.40;17.97;;;;;;;;;;5157400;27;20447;-73
2022/10/17 04:49:50;;;;;;;214.07;22.30;;;;;;;;;;5157106;27;20999;-73
2022/10/17 04:52:19;;;;;;;81.30;16.53;;;;;;;;;;5157419;27;20451;-73
2022/10/17 04:54:46;;;;;;;227.87;20.50;;;;;;;;;;5156661;27;20455;-73
2022/10/17 04:57:13;;;;;;;102.57;16.13;;;;;;;;;;5157395;27;20818;-73
2022/10/17 04:59:40;;;;;;;150.47;17.53;;;;;;;;;;5156065;27;20811;-73
2022/10/17 05:02:07;;;;;;;92.50;16.10;;;;;;;;;;5156991;27;20450;-73
2022/10/17 05:04:34;;;;;;;100.53;12.13;;;;;;;;;;5156348;27;20458;-73
2022/10/17 05:07:02;;;;;;;125.80;13.17;;;;;;;;;;5157057;27;20460;-73
2022/10/17 05:09:31;;;;;;;66.57;11.50;;;;;;;;;;5156922;27;21022;-73
2022/10/17 05:11:58;;;;;;;50.67;11.93;;;;;;;;;;5156769;27;20462;-73
2022/10/17 05:14:25;;;;;;;45.80;12.50;;;;;;;;;;5156170;27;20535;-73
2022/10/17 05:16:52;;;;;;;33.10;10.40;;;;;;;;;;5157052;27;20487;-73
2022/10/17 05:19:19;;;;;;;46.47;11.17;;;;;;;;;;5156763;27;20447;-73
2022/10/17 05:21:50;;;;;;;78.37;13.10;;;;;;;;;;5156729;27;20528;-73
2022/10/17 05:24:17;;;;;;;70.67;11.77;;;;;;;;;;5156107;27;20452;-73
2022/10/17 05:26:45;;;;;;;33.30;10.90;;;;;;;;;;5156571;27;20483;-73
2022/10/17 05:29:12;;;;;;;17.30;9.97;;;;;;;;;;5156518;27;20484;-73
2022/10/17 05:31:40;;;;;;;18.33;9.10;;;;;;;;;;5156431;27;20473;-73
2022/10/17 05:34:07;;;;;;;21.00;11.83;;;;;;;;;;5155788;27;20486;-73
2022/10/17 05:36:34;;;;;;;32.13;11.77;;;;;;;;;;5156303;27;20493;-73
2022/10/17 05:39:01;;;;;;;80.83;29.23;;;;;;;;;;5156351;27;20448;-73
2022/10/17 05:41:28;;;;;;;57.97;15.30;;;;;;;;;;5156427;27;20456;-73
2022/10/17 05:43:57;;;;;;;40.30;13.60;;;;;;;;;;5153159;27;20447;-73
2022/10/17 05:46:24;;;;;;;72.13;13.70;;;;;;;;;;5155640;27;20467;-73
2022/10/17 05:48:51;;;;;;;27.93;11.87;;;;;;;;;;5156213;27;20520;-73
2022/10/17 05:51:18;;;;;;;50.30;13.50;;;;;;;;;;5156276;27;20479;-73
2022/10/17 05:53:46;;;;;;;57.50;15.13;;;;;;;;;;5155672;27;20812;-73
2022/10/17 05:56:14;;;;;;;34.10;13.30;;;;;;;;;;5156002;27;20478;-73
2022/10/17 05:58:42;;;;;;;41.53;15.07;;;;;;;;;;5155857;27;20459;-73
2022/10/17 06:01:11;;;;;;;87.00;16.80;;;;;;;;;;5155181;27;20487;-73
2022/10/17 06:03:38;;;;;;;79.77;15.47;;;;;;;;;;5155442;27;20829;-73
2022/10/17 06:06:07;;;;;;;38.03;14.43;;;;;;;;;;5155838;27;20468;-73
2022/10/17 06:08:34;;;;;;;42.63;14.70;;;;;;;;;;5155682;27;20458;-73
2022/10/17 06:11:01;;;;;;;98.13;15.70;;;;;;;;;;5155621;27;21022;-73
2022/10/17 06:13:28;;;;;;;38.77;14.60;;;;;;;;;;5155044;27;20455;-73
2022/10/17 06:15:56;;;;;;;44.37;14.17;;;;;;;;;;5155775;27;20468;-73
2022/10/17 06:18:25;;;;;;;66.00;14.80;;;;;;;;;;5155700;27;20444;-73
2022/10/17 06:20:52;;;;;;;60.70;15.83;;;;;;;;;;5155692;27;20448;-73
2022/10/17 06:23:19;;;;;;;48.83;13.87;;;;;;;;;;5155377;27;20455;-73
2022/10/17 06:25:46;;;;;;;78.10;16.60;;;;;;;;;;5154854;27;20470;-73
2022/10/17 06:28:14;;;;;;;37.73;14.23;;;;;;;;;;5155578;27;20816;-73
2022/10/17 06:30:41;;;;;;;40.07;16.03;;;;;;;;;;5155094;27;20487;-73
2022/10/17 06:33:08;;;;;;;38.53;15.57;;;;;;;;;;5155364;27;20453;-73
2022/10/17 06:35:37;;;;;;;209.03;26.00;;;;;;;;;;5154457;27;20833;-73
2022/10/17 06:38:04;;;;;;;66.97;18.13;;;;;;;;;;5155201;27;20455;-73
2022/10/17 06:40:32;;;;;;;144.23;23.70;;;;;;;;;;5155074;27;20448;-73
2022/10/17 06:42:59;;;;;;;103.20;18.80;;;;;;;;;;5152890;27;20452;-73
2022/10/17 06:45:26;;;;;;;55.93;18.33;;;;;;;;;;5154471;27;20475;-73
2022/10/17 06:47:53;;;;;;;95.77;23.10;;;;;;;;;;5155173;27;20959;-73
2022/10/17 06:50:21;;;;;;;80.83;19.13;;;;;;;;;;5155041;27;20483;-73
2022/10/17 06:52:52;;;;;;;91.07;22.27;;;;;;;;;;5154818;27;20451;-73
2022/10/17 06:55:19;;;;;;;40.43;18.90;;;;;;;;;;5154297;27;20472;-73
2022/10/17 06:57:46;;;;;;;30.93;16.90;;;;;;;;;;5154202;27;20447;-73
2022/10/17 07:00:14;;;;;;;57.30;22.30;;;;;;;;;;5154048;27;20439;-72
2022/10/17 07:02:43;;;;;;;143.70;28.63;;;;;;;;;;5154946;27;20840;-73
2022/10/17 07:05:10;;;;;;;114.63;27.83;;;;;;;;;;5153900;27;20470;-73
2022/10/17 07:07:38;;;;;;;151.77;25.97;;;;;;;;;;5154842;27;21008;-73
2022/10/17 07:10:08;;;;;;;62.47;21.77;;;;;;;;;;5154803;27;21000;-72
2022/10/17 07:12:35;;;;;;;48.23;21.30;;;;;;;;;;5154715;27;20825;-72
2022/10/17 07:15:03;;;;;;;63.33;21.60;;;;;;;;;;5153905;27;20464;-73
2022/10/17 07:17:30;;;;;;;39.50;17.33;;;;;;;;;;5154511;27;20454;-73
2022/10/17 07:19:57;;;;;;;58.07;15.90;;;;;;;;;;5154477;27;20499;-73
2022/10/17 07:22:24;;;;;;;80.03;19.23;;;;;;;;;;5154599;27;20455;-72
2022/10/17 07:24:51;;;;;;;83.13;18.43;;;;;;;;;;5153930;27;20972;-73
2022/10/17 07:27:20;;;;;;;95.63;20.20;;;;;;;;;;5154441;27;20444;-72
2022/10/17 07:29:47;;;;;;;74.03;18.90;;;;;;;;;;5154483;27;20479;-73
2022/10/17 07:32:14;;;;;;;43.23;17.23;;;;;;;;;;5154393;27;20968;-73
2022/10/17 07:34:41;;;;;;;84.63;19.23;;;;;;;;;;5153635;27;20457;-73
2022/10/17 07:37:09;;;;;;;106.17;19.73;;;;;;;;;;5154626;27;20443;-72
2022/10/17 07:39:38;;;;;;;110.50;21.40;;;;;;;;;;5154345;27;20463;-72
2022/10/17 07:42:07;;;;;;;150.80;22.60;;;;;;;;;;5152222;27;20587;-74
2022/10/17 07:44:35;;;;;;;111.50;20.87;;;;;;;;;;5153294;27;20947;-73
2022/10/17 07:47:03;;;;;;;85.53;20.20;;;;;;;;;;5154332;27;20451;-72
2022/10/17 07:49:30;;;;;;;146.67;22.90;;;;;;;;;;5154305;27;20454;-72
2022/10/17 07:51:57;;;;;;;85.10;21.50;;;;;;;;;;5154185;27;20483;-72
2022/10/17 07:54:24;;;;;;;91.17;25.67;;;;;;;;;;5153570;27;20543;-72
2022/10/17 07:56:51;;;;;;;73.93;21.00;;;;;;;;;;5154338;27;20455;-73
2022/10/17 07:59:19;;;;;;;51.50;25.13;;;;;;;;;;5152608;27;20447;-73
2022/10/17 08:01:47;;;;;;;109.53;23.70;;;;;;;;;;5154225;27;20448;-73
2022/10/17 08:04:15;;;;;;;74.83;21.60;;;;;;;;;;5153645;27;20458;-73
2022/10/17 08:06:42;;;;;;;76.13;22.00;;;;;;;;;;5154103;27;20836;-72
2022/10/17 08:09:10;;;;;;;68.97;34.43;;;;;;;;;;5155546;27;20447;-73
2022/10/17 08:11:37;;;;;;;150.13;24.40;;;;;;;;;;5157807;27;20842;-73
2022/10/17 08:14:04;;;;;;;70.57;20.87;;;;;;;;;;5157532;27;20964;-73
2022/10/17 08:16:32;;;;;;;99.80;48.03;;;;;;;;;;5157833;27;20471;-72
2022/10/17 08:19:00;;;;;;;134.70;36.80;;;;;;;;;;5158115;27;20443;-72
2022/10/17 08:21:27;;;;;;;154.60;27.47;;;;;;;;;;5157783;27;20456;-73
2022/10/17 08:23:54;;;;;;;91.80;24.50;;;;;;;;;;5157248;27;20444;-74
2022/10/17 08:26:22;;;;;;;98.00;35.90;;;;;;;;;;5157881;27;20826;-73
2022/10/17 08:28:49;;;;;;;69.53;19.67;;;;;;;;;;5157808;27;20483;-72
2022/10/17 08:31:18;;;;;;;111.13;20.60;;;;;;;;;;5157753;27;20501;-72
2022/10/17 08:33:45;;;;;;;61.50;17.70;;;;;;;;;;5156917;27;20447;-73
2022/10/17 08:36:14;;;;;;;38.03;17.20;;;;;;;;;;5157618;27;20469;-73
2022/10/17 08:38:42;;;;;;;78.43;16.70;;;;;;;;;;5157531;27;20824;-73
2022/10/17 08:41:14;;;;;;;20.43;11.60;;;;;;;;;;5157517;27;20496;-73
2022/10/17 08:43:47;;;;;;;38.23;13.73;;;;;;;;;;5154924;27;20451;-73
2022/10/17 08:46:14;;;;;;;63.60;13.90;;;;;;;;;;5157336;27;20463;-72
2022/10/17 08:48:43;;;;;;;86.30;13.90;;;;;;;;;;5157434;27;20543;-72
2022/10/17 08:51:12;;;;;;;58.30;31.00;;;;;;;;;;5157282;27;20488;-73
2022/10/17 08:53:43;;;;;;;31.73;11.20;;;;;;;;;;5156570;27;20447;-73
2022/10/17 08:56:16;;;;;;;43.77;12.07;;;;;;;;;;5157303;27;20463;-73
2022/10/17 08:58:43;;;;;;;37.93;14.37;;;;;;;;;;5157207;27;20477;-73
2022/10/17 09:01:14;;;;;;;21.27;11.67;;;;;;;;;;5155838;27;20951;-73
2022/10/17 09:03:45;;;;;;;25.77;11.27;;;;;;;;;;5156409;27;20459;-73
2022/10/17 09:06:19;;;;;;;21.53;11.70;;;;;;;;;;5156987;27;20475;-73
2022/10/17 09:08:53;;;;;;;15.93;11.23;;;;;;;;;;5156984;27;20846;-73
2022/10/17 09:11:25;;;;;;;14.13;11.57;;;;;;;;;;5156899;27;21000;-73
2022/10/17 09:13:57;;;;;;;11.00;9.30;;;;;;;;;;5156552;27;20951;-73
2022/10/17 09:16:31;;;;;;;13.00;9.40;;;;;;;;;;5156787;27;20482;-73
2022/10/17 09:19:01;;;;;;;11.90;8.97;;;;;;;;;;5157051;27;20951;-73
2022/10/17 09:21:34;;;;;;;10.50;8.17;;;;;;;;;;5156310;27;20450;-73
2022/10/17 09:24:04;;;;;;;11.40;10.10;;;;;;;;;;5156088;27;20457;-73
2022/10/17 09:26:31;;;;;;;11.67;8.63;;;;;;;;;;5156828;27;20965;-74
2022/10/17 09:28:59;;;;;;;10.93;7.77;;;;;;;;;;5156649;27;20443;-73
2022/10/17 09:31:29;;;;;;;16.13;9.90;;;;;;;;;;5156630;27;20494;-73
2022/10/17 09:33:57;;;;;;;12.13;8.77;;;;;;;;;;5156075;27;20447;-73
2022/10/17 09:36:25;;;;;;;9.60;8.53;;;;;;;;;;5156399;27;20467;-73
2022/10/17 09:38:53;;;;;;;12.83;9.80;;;;;;;;;;5156627;27;20444;-73
2022/10/17 09:41:23;;;;;;;10.40;8.60;;;;;;;;;;5156509;27;20443;-73
2022/10/17 09:43:52;;;;;;;11.17;9.73;;;;;;;;;;5153137;27;20454;-73
2022/10/17 09:46:22;;;;;;;13.00;10.00;;;;;;;;;;5156277;27;20471;-73
2022/10/17 09:48:51;;;;;;;19.13;13.10;;;;;;;;;;5156349;27;20463;-73
2022/10/17 09:51:18;;;;;;;15.03;10.40;;;;;;;;;;5156319;27;20821;-73
2022/10/17 09:53:47;;;;;;;10.37;9.37;;;;;;;;;;5155574;27;20964;-74
2022/10/17 09:56:15;;;;;;;14.13;9.50;;;;;;;;;;5155792;27;20478;-73
2022/10/17 09:58:46;;;;;;;14.73;10.53;;;;;;;;;;5156089;27;20459;-73
2022/10/17 10:01:19;;;;;;;14.63;10.00;;;;;;;;;;5154631;27;20447;-73
2022/10/17 10:03:46;;;;;;;16.97;9.70;;;;;;;;;;5155341;27;20463;-73
2022/10/17 10:06:14;;;;;;;10.77;9.37;;;;;;;;;;5155784;27;20855;-73
2022/10/17 10:08:49;;;;;;;10.97;8.93;;;;;;;;;;5155854;27;20451;-73
2022/10/17 10:11:16;;;;;;;12.87;11.57;;;;;;;;;;5155713;27;20493;-73
2022/10/17 10:13:46;;;;;;;14.43;12.93;;;;;;;;;;5155063;27;20542;-74
2022/10/17 10:16:15;;;;;;;15.70;13.70;;;;;;;;;;5155916;27;20452;-73
2022/10/17 10:18:43;;;;;;;17.77;14.63;;;;;;;;;;5155586;27;20464;-73
2022/10/17 10:21:11;;;;;;;17.13;15.33;;;;;;;;;;5155621;27;20450;-73
2022/10/17 10:23:39;;;;;;;15.83;14.20;;;;;;;;;;5154918;27;20455;-73
2022/10/17 10:26:13;;;;;;;20.00;17.30;;;;;;;;;;5155629;27;20467;-73
2022/10/17 10:28:41;;;;;;;17.93;15.83;;;;;;;;;;5155488;27;20828;-73
2022/10/17 10:31:10;;;;;;;17.33;15.23;;;;;;;;;;5155429;27;21023;-73
2022/10/17 10:33:41;;;;;;;21.60;16.43;;;;;;;;;;5153713;27;20944;-73
2022/10/17 10:36:08;;;;;;;19.70;16.83;;;;;;;;;;5155374;27;20473;-73
2022/10/17 10:38:36;;;;;;;19.23;17.13;;;;;;;;;;5155152;27;20450;-73
2022/10/17 10:41:06;;;;;;;22.47;20.27;;;;;;;;;;5155350;27;20454;-73
2022/10/17 10:43:35;;;;;;;19.90;17.50;;;;;;;;;;5152132;27;20451;-73
2022/10/17 10:46:03;;;;;;;18.57;16.87;;;;;;;;;;5155032;27;20463;-73
2022/10/17 10:48:34;;;;;;;17.63;15.93;;;;;;;;;;5155008;27;20446;-73
2022/10/17 10:51:04;;;;;;;19.43;16.27;;;;;;;;;;5154969;27;20485;-73
2022/10/17 10:53:35;;;;;;;18.23;16.30;;;;;;;;;;5154357;27;20448;-74
2022/10/17 10:56:04;;;;;;;18.93;16.30;;;;;;;;;;5155061;27;20797;-73
2022/10/17 10:58:40;;;;;;;21.30;18.03;;;;;;;;;;5154767;27;20447;-73
2022/10/17 11:01:12;;;;;;;19.70;16.50;;;;;;;;;;5153899;27;20450;-73
2022/10/17 11:03:42;;;;;;;16.00;12.57;;;;;;;;;;5154295;27;20452;-73
2022/10/17 11:06:14;;;;;;;13.70;11.83;;;;;;;;;;5154847;27;20466;-73
2022/10/17 11:08:43;;;;;;;10.00;9.00;;;;;;;;;;5154717;27;20812;-74
2022/10/17 11:11:16;;;;;;;10.23;9.00;;;;;;;;;;5154539;27;20491;-73
2022/10/17 11:13:45;;;;;;;8.70;7.90;;;;;;;;;;5154242;27;20554;-74
2022/10/17 11:16:21;;;;;;;8.53;7.33;;;;;;;;;;5154564;27;20471;-73
2022/10/17 11:18:51;;;;;;;9.00;7.90;;;;;;;;;;5154589;27;20451;-73
2022/10/17 11:21:21;;;;;;;11.50;8.30;;;;;;;;;;5154610;27;20454;-74
2022/10/17 11:23:49;;;;;;;9.43;6.77;;;;;;;;;;5153868;27;20458;-74
2022/10/17 11:26:24;;;;;;;8.50;7.20;;;;;;;;;;5154511;27;20475;-73
2022/10/17 11:28:52;;;;;;;6.73;6.13;;;;;;;;;;5154471;27;20440;-73
2022/10/17 11:31:20;;;;;;;7.70;7.00;;;;;;;;;;5154492;27;20850;-74
2022/10/17 11:33:50;;;;;;;6.47;5.93;;;;;;;;;;5153954;27;20463;-74
2022/10/17 11:36:20;;;;;;;7.43;6.67;;;;;;;;;;5154600;27;20483;-74
2022/10/17 11:38:51;;;;;;;7.10;6.40;;;;;;;;;;5154587;27;20527;-74
2022/10/17 11:41:21;;;;;;;6.00;5.40;;;;;;;;;;5154769;27;20796;-74
2022/10/17 11:43:50;;;;;;;7.10;6.43;;;;;;;;;;5153042;27;20479;-74
2022/10/17 11:46:20;;;;;;;6.57;5.20;;;;;;;;;;5158587;27;20494;-74
2022/10/17 11:48:53;;;;;;;5.63;5.13;;;;;;;;;;5158768;27;20473;-74
2022/10/17 11:51:22;;;;;;;20.47;17.50;;;;;;;;;;5158606;27;21014;-74
2022/10/17 11:53:52;;;;;;;11.70;7.17;;;;;;;;;;5158008;27;20534;-74
2022/10/17 11:56:23;;;;;;;8.30;5.70;;;;;;;;;;5158535;27;20471;-74
2022/10/17 11:58:53;;;;;;;7.43;6.00;;;;;;;;;;5158392;27;20454;-74
2022/10/17 12:01:25;;;;;;;5.90;4.77;;;;;;;;;;5157477;27;20451;-74
2022/10/17 12:03:59;;;;;;;5.83;4.80;;;;;;;;;;5157927;27;20448;-74
2022/10/17 12:06:35;;;;;;;7.77;5.10;;;;;;;;;;5158389;27;20873;-74
2022/10/17 12:09:08;;;;;;;5.03;4.60;;;;;;;;;;5158557;27;20875;-74
2022/10/17 12:11:44;;;;;;;7.00;5.20;;;;;;;;;;5157912;27;20494;-74
2022/10/17 12:14:30;;;;;;;9.73;5.40;;;;;;;;;;5157880;27;20834;-74
2022/10/17 12:16:57;;;;;;;8.73;5.30;;;;;;;;;;5158268;27;20966;-74
2022/10/17 12:19:34;;;;;;;7.33;5.63;;;;;;;;;;5158022;27;20948;-74
2022/10/17 12:22:06;;;;;;;7.67;6.40;;;;;;;;;;5158176;27;20888;-74
2022/10/17 12:24:38;;;;;;;7.77;7.07;;;;;;;;;;5157511;27;20452;-74
2022/10/17 12:27:24;;;;;;;9.77;6.33;;;;;;;;;;5157899;27;20450;-74
2022/10/17 12:29:51;;;;;;;7.33;6.20;;;;;;;;;;5157797;27;20447;-74
2022/10/17 12:32:18;;;;;;;9.53;6.63;;;;;;;;;;5157757;27;20491;-75
2022/10/17 12:34:52;;;;;;;5.20;4.03;;;;;;;;;;5156985;27;20487;-73
2022/10/17 12:37:34;;;;;;;8.70;5.37;;;;;;;;;;5157780;27;20495;-74
2022/10/17 12:40:02;;;;;;;6.63;6.07;;;;;;;;;;5157879;27;20446;-74
2022/10/17 12:42:31;;;;;;;7.80;4.80;;;;;;;;;;5155650;27;20439;-74
2022/10/17 12:44:58;;;;;;;6.33;5.40;;;;;;;;;;5156875;27;20467;-74
2022/10/17 12:47:29;;;;;;;10.13;5.80;;;;;;;;;;5157596;27;20440;-74
2022/10/17 12:49:56;;;;;;;10.53;8.33;;;;;;;;;;5157311;27;20444;-74
2022/10/17 12:52:25;;;;;;;8.10;6.10;;;;;;;;;;5157445;27;20498;-73
2022/10/17 12:55:08;;;;;;;8.50;6.90;;;;;;;;;;5156225;27;20489;-73
2022/10/17 12:57:37;;;;;;;7.37;5.90;;;;;;;;;;5156746;27;20459;-73
2022/10/17 13:00:13;;;;;;;8.53;7.10;;;;;;;;;;5156489;27;20454;-73
2022/10/17 13:02:41;;;;;;;7.80;6.67;;;;;;;;;;5157337;27;20878;-74
2022/10/17 13:05:12;;;;;;;9.40;6.83;;;;;;;;;;5156986;27;20474;-74
2022/10/17 13:07:41;;;;;;;11.03;6.87;;;;;;;;;;5157101;27;20952;-73
2022/10/17 13:10:19;;;;;;;11.30;7.27;;;;;;;;;;5157404;27;20440;-74
2022/10/17 13:12:47;;;;;;;12.53;8.07;;;;;;;;;;5157292;27;20579;-74
2022/10/17 13:15:17;;;;;;;9.10;7.27;;;;;;;;;;5156294;27;20472;-73
2022/10/17 13:17:44;;;;;;;8.80;7.80;;;;;;;;;;5156826;27;20462;-74
2022/10/17 13:20:19;;;;;;;8.73;7.80;;;;;;;;;;5156889;27;20820;-73
2022/10/17 13:22:46;;;;;;;10.83;7.60;;;;;;;;;;5156963;27;21329;-73
2022/10/17 13:25:16;;;;;;;8.13;7.30;;;;;;;;;;5156138;27;20468;-73
2022/10/17 13:27:43;;;;;;;10.33;8.00;;;;;;;;;;5156732;27;20816;-73
2022/10/17 13:30:26;;;;;;;10.13;8.10;;;;;;;;;;5156614;27;20444;-73
2022/10/17 13:32:54;;;;;;;10.03;7.10;;;;;;;;;;5156620;27;20540;-73
2022/10/17 13:35:26;;;;;;;9.10;7.10;;;;;;;;;;5155904;27;20470;-73
2022/10/17 13:37:54;;;;;;;12.43;9.03;;;;;;;;;;5156453;27;20515;-74
2022/10/17 13:40:24;;;;;;;12.10;10.33;;;;;;;;;;5156598;27;20448;-73
2022/10/17 13:42:52;;;;;;;16.20;10.50;;;;;;;;;;5154487;27;20851;-73
2022/10/17 13:45:20;;;;;;;13.77;10.10;;;;;;;;;;5155652;27;20475;-73
2022/10/17 13:47:47;;;;;;;16.10;9.90;;;;;;;;;;5156171;27;20825;-73
2022/10/17 13:50:20;;;;;;;13.30;10.50;;;;;;;;;;5156316;27;20447;-73
2022/10/17 13:52:47;;;;;;;19.27;10.63;;;;;;;;;;5156162;27;20483;-73
2022/10/17 13:55:18;;;;;;;18.93;11.40;;;;;;;;;;5155567;27;20840;-73
2022/10/17 13:57:47;;;;;;;15.50;10.37;;;;;;;;;;5156003;27;20828;-74
2022/10/17 14:00:18;;;;;;;15.27;10.77;;;;;;;;;;5154543;27;20952;-73
2022/10/17 14:02:47;;;;;;;28.00;21.17;;;;;;;;;;5155996;27;20443;-73
2022/10/17 14:05:15;;;;;;;18.57;11.57;;;;;;;;;;5155479;27;20520;-73
2022/10/17 14:07:44;;;;;;;16.43;11.30;;;;;;;;;;5155496;27;20458;-73
2022/10/17 14:10:18;;;;;;;13.90;9.67;;;;;;;;;;5155938;27;20823;-73
2022/10/17 14:12:47;;;;;;;10.40;9.20;;;;;;;;;;5155705;27;20859;-73
2022/10/17 14:15:15;;;;;;;14.37;9.83;;;;;;;;;;5155309;27;20464;-73
2022/10/17 14:17:43;;;;;;;16.30;9.37;;;;;;;;;;5155726;27;20459;-73
2022/10/17 14:20:17;;;;;;;17.80;10.97;;;;;;;;;;5155531;27;20458;-73
2022/10/17 14:22:45;;;;;;;25.97;10.90;;;;;;;;;;5155461;27;20455;-73
2022/10/17 14:25:27;;;;;;;14.80;10.20;;;;;;;;;;5154908;27;20468;-73
2022/10/17 14:28:02;;;;;;;15.23;10.10;;;;;;;;;;5155783;27;20924;-73
2022/10/17 14:30:32;;;;;;;14.30;10.50;;;;;;;;;;5155429;27;20476;-73
2022/10/17 14:33:02;;;;;;;15.30;11.47;;;;;;;;;;5155212;27;20485;-73
2022/10/17 14:35:29;;;;;;;16.07;9.80;;;;;;;;;;5154603;27;20972;-73